sensor_id;sensor_type;location;lat;lon;timestamp;pressure;altitude;pressure_sealevel;temperature;humidity
60611;BME280;46439;51.164;13.572;2022-11-13T00:01:21;101480.59;;;5.36;82.51
60611;BME280;46439;51.164;13.572;2022-11-13T00:03:50;101483.16;;;5.32;82.46
60611;BME280;46439;51.164;13.572;2022-11-13T00:06:19;101474.79;;;5.29;82.43
60611;BME280;46439;51.164;13.572;2022-11-13T00:08:51;101475.38;;;5.29;82.43
60611;BME280;46439;51.164;13.572;2022-11-13T00:11:20;101475.59;;;5.21;82.43
60611;BME280;46439;51.164;13.572;2022-11-13T00:13:49;101475.81;;;5.09;81.85
60611;BME280;46439;51.164;13.572;2022-11-13T00:16:19;101474.66;;;5.00;81.81
60611;BME280;46439;51.164;13.572;2022-11-13T00:18:48;101475.23;;;4.92;81.70
60611;BME280;46439;51.164;13.572;2022-11-13T00:21:18;101478.61;;;4.87;81.46
60611;BME280;46439;51.164;13.572;2022-11-13T00:23:47;101475.99;;;4.81;81.63
60611;BME280;46439;51.164;13.572;2022-11-13T00:26:18;101468.88;;;4.78;81.35
60611;BME280;46439;51.164;13.572;2022-11-13T00:28:50;101466.33;;;4.78;81.48
60611;BME280;46439;51.164;13.572;2022-11-13T00:31:20;101470.14;;;4.80;81.75
60611;BME280;46439;51.164;13.572;2022-11-13T00:33:49;101471.73;;;4.80;81.81
60611;BME280;46439;51.164;13.572;2022-11-13T00:36:19;101471.64;;;4.81;81.89
60611;BME280;46439;51.164;13.572;2022-11-13T00:38:48;101474.60;;;4.83;82.17
60611;BME280;46439;51.164;13.572;2022-11-13T00:41:16;101470.07;;;4.84;82.24
60611;BME280;46439;51.164;13.572;2022-11-13T00:43:45;101468.17;;;4.80;82.19
60611;BME280;46439;51.164;13.572;2022-11-13T00:46:13;101463.30;;;4.71;81.83
60611;BME280;46439;51.164;13.572;2022-11-13T00:48:42;101462.16;;;4.63;81.71
60611;BME280;46439;51.164;13.572;2022-11-13T00:51:11;101458.90;;;4.61;81.66
60611;BME280;46439;51.164;13.572;2022-11-13T00:53:39;101456.57;;;4.62;81.96
60611;BME280;46439;51.164;13.572;2022-11-13T00:56:08;101454.23;;;4.62;81.82
60611;BME280;46439;51.164;13.572;2022-11-13T00:58:37;101451.70;;;4.63;81.73
60611;BME280;46439;51.164;13.572;2022-11-13T01:01:09;101451.55;;;4.62;81.96
60611;BME280;46439;51.164;13.572;2022-11-13T01:03:38;101451.23;;;4.62;82.04
60611;BME280;46439;51.164;13.572;2022-11-13T01:06:13;101452.42;;;4.62;82.02
60611;BME280;46439;51.164;13.572;2022-11-13T01:08:42;101450.39;;;4.63;82.29
60611;BME280;46439;51.164;13.572;2022-11-13T01:11:13;101451.11;;;4.66;82.26
60611;BME280;46439;51.164;13.572;2022-11-13T01:13:44;101448.14;;;4.68;82.42
60611;BME280;46439;51.164;13.572;2022-11-13T01:16:14;101439.06;;;4.70;82.43
60611;BME280;46439;51.164;13.572;2022-11-13T01:18:43;101432.29;;;4.70;82.39
60611;BME280;46439;51.164;13.572;2022-11-13T01:21:13;101430.58;;;4.69;82.60
60611;BME280;46439;51.164;13.572;2022-11-13T01:23:42;101432.18;;;4.69;82.36
60611;BME280;46439;51.164;13.572;2022-11-13T01:26:14;101435.04;;;4.64;82.47
60611;BME280;46439;51.164;13.572;2022-11-13T01:28:44;101432.80;;;4.55;82.19
60611;BME280;46439;51.164;13.572;2022-11-13T01:31:15;101429.41;;;4.50;82.41
60611;BME280;46439;51.164;13.572;2022-11-13T01:33:44;101432.55;;;4.42;82.05
60611;BME280;46439;51.164;13.572;2022-11-13T01:36:15;101435.09;;;4.39;81.90
60611;BME280;46439;51.164;13.572;2022-11-13T01:38:43;101435.16;;;4.35;82.02
60611;BME280;46439;51.164;13.572;2022-11-13T01:41:17;101430.60;;;4.34;81.97
60611;BME280;46439;51.164;13.572;2022-11-13T01:43:46;101433.91;;;4.33;81.93
60611;BME280;46439;51.164;13.572;2022-11-13T01:46:18;101432.82;;;4.28;81.94
60611;BME280;46439;51.164;13.572;2022-11-13T01:48:51;101428.85;;;4.23;81.83
60611;BME280;46439;51.164;13.572;2022-11-13T01:51:24;101423.64;;;4.18;81.75
60611;BME280;46439;51.164;13.572;2022-11-13T01:53:56;101418.14;;;4.04;81.72
60611;BME280;46439;51.164;13.572;2022-11-13T01:56:25;101411.70;;;3.91;81.10
60611;BME280;46439;51.164;13.572;2022-11-13T01:59:00;101409.77;;;3.80;80.70
60611;BME280;46439;51.164;13.572;2022-11-13T02:01:30;101406.13;;;3.75;80.77
60611;BME280;46439;51.164;13.572;2022-11-13T02:03:58;101402.98;;;3.77;81.08
60611;BME280;46439;51.164;13.572;2022-11-13T02:06:30;101394.44;;;3.77;81.28
60611;BME280;46439;51.164;13.572;2022-11-13T02:09:00;101394.63;;;3.77;81.15
60611;BME280;46439;51.164;13.572;2022-11-13T02:11:29;101395.00;;;3.80;81.40
60611;BME280;46439;51.164;13.572;2022-11-13T02:13:58;101387.39;;;3.84;81.43
60611;BME280;46439;51.164;13.572;2022-11-13T02:16:28;101385.40;;;3.90;81.57
60611;BME280;46439;51.164;13.572;2022-11-13T02:18:57;101393.12;;;3.95;81.83
60611;BME280;46439;51.164;13.572;2022-11-13T02:21:34;101393.41;;;3.98;82.04
60611;BME280;46439;51.164;13.572;2022-11-13T02:24:14;101391.23;;;3.96;81.81
60611;BME280;46439;51.164;13.572;2022-11-13T02:26:44;101394.59;;;3.94;81.63
60611;BME280;46439;51.164;13.572;2022-11-13T02:29:12;101400.05;;;3.90;81.58
60611;BME280;46439;51.164;13.572;2022-11-13T02:31:41;101398.62;;;3.90;81.59
60611;BME280;46439;51.164;13.572;2022-11-13T02:34:09;101398.77;;;3.92;81.63
60611;BME280;46439;51.164;13.572;2022-11-13T02:36:38;101397.84;;;3.96;81.73
60611;BME280;46439;51.164;13.572;2022-11-13T02:39:08;101396.86;;;4.03;81.96
60611;BME280;46439;51.164;13.572;2022-11-13T02:41:37;101401.80;;;4.03;82.12
60611;BME280;46439;51.164;13.572;2022-11-13T02:44:06;101398.34;;;4.05;82.13
60611;BME280;46439;51.164;13.572;2022-11-13T02:46:36;101399.11;;;4.01;82.07
60611;BME280;46439;51.164;13.572;2022-11-13T02:49:04;101397.66;;;3.98;81.79
60611;BME280;46439;51.164;13.572;2022-11-13T02:51:33;101392.77;;;3.94;81.90
60611;BME280;46439;51.164;13.572;2022-11-13T02:54:02;101386.54;;;3.89;81.60
60611;BME280;46439;51.164;13.572;2022-11-13T02:56:30;101391.60;;;3.88;81.70
60611;BME280;46439;51.164;13.572;2022-11-13T02:58:59;101391.76;;;3.85;81.69
60611;BME280;46439;51.164;13.572;2022-11-13T03:01:28;101385.13;;;3.89;81.85
60611;BME280;46439;51.164;13.572;2022-11-13T03:03:56;101383.56;;;3.96;81.76
60611;BME280;46439;51.164;13.572;2022-11-13T03:06:25;101379.55;;;4.03;82.12
60611;BME280;46439;51.164;13.572;2022-11-13T03:08:53;101375.63;;;4.12;82.44
60611;BME280;46439;51.164;13.572;2022-11-13T03:11:22;101374.81;;;4.18;82.56
60611;BME280;46439;51.164;13.572;2022-11-13T03:13:50;101369.81;;;4.24;82.46
60611;BME280;46439;51.164;13.572;2022-11-13T03:16:18;101368.69;;;4.27;82.62
60611;BME280;46439;51.164;13.572;2022-11-13T03:18:47;101363.08;;;4.34;82.91
60611;BME280;46439;51.164;13.572;2022-11-13T03:21:16;101360.67;;;4.43;82.79
60611;BME280;46439;51.164;13.572;2022-11-13T03:23:44;101365.45;;;4.54;83.06
60611;BME280;46439;51.164;13.572;2022-11-13T03:26:15;101368.63;;;4.63;83.48
60611;BME280;46439;51.164;13.572;2022-11-13T03:28:44;101366.88;;;4.64;83.35
60611;BME280;46439;51.164;13.572;2022-11-13T03:31:13;101371.86;;;4.70;83.44
60611;BME280;46439;51.164;13.572;2022-11-13T03:33:42;101379.95;;;4.74;83.30
60611;BME280;46439;51.164;13.572;2022-11-13T03:36:10;101377.10;;;4.79;83.46
60611;BME280;46439;51.164;13.572;2022-11-13T03:38:39;101373.29;;;4.85;83.48
60611;BME280;46439;51.164;13.572;2022-11-13T03:41:07;101372.80;;;4.95;83.60
60611;BME280;46439;51.164;13.572;2022-11-13T03:43:36;101364.95;;;5.00;83.75
60611;BME280;46439;51.164;13.572;2022-11-13T03:46:05;101364.23;;;5.02;83.58
60611;BME280;46439;51.164;13.572;2022-11-13T03:48:34;101366.60;;;5.04;83.76
60611;BME280;46439;51.164;13.572;2022-11-13T03:51:02;101365.02;;;5.02;83.48
60611;BME280;46439;51.164;13.572;2022-11-13T03:53:31;101359.38;;;5.06;83.65
60611;BME280;46439;51.164;13.572;2022-11-13T03:56:00;101349.14;;;5.07;83.62
60611;BME280;46439;51.164;13.572;2022-11-13T03:58:28;101344.19;;;5.14;83.62
60611;BME280;46439;51.164;13.572;2022-11-13T04:00:57;101345.48;;;5.15;83.56
60611;BME280;46439;51.164;13.572;2022-11-13T04:03:25;101339.66;;;5.14;83.35
60611;BME280;46439;51.164;13.572;2022-11-13T04:05:54;101332.94;;;5.14;83.54
60611;BME280;46439;51.164;13.572;2022-11-13T04:08:22;101330.30;;;5.18;83.59
60611;BME280;46439;51.164;13.572;2022-11-13T04:10:51;101323.45;;;5.17;83.62
60611;BME280;46439;51.164;13.572;2022-11-13T04:13:19;101318.46;;;5.12;83.57
60611;BME280;46439;51.164;13.572;2022-11-13T04:15:47;101318.61;;;5.12;83.53
60611;BME280;46439;51.164;13.572;2022-11-13T04:18:16;101316.92;;;5.15;83.58
60611;BME280;46439;51.164;13.572;2022-11-13T04:20:44;101313.04;;;5.17;83.59
60611;BME280;46439;51.164;13.572;2022-11-13T04:23:13;101314.43;;;5.20;83.57
60611;BME280;46439;51.164;13.572;2022-11-13T04:25:43;101318.75;;;5.23;83.57
60611;BME280;46439;51.164;13.572;2022-11-13T04:28:11;101312.19;;;5.22;83.65
60611;BME280;46439;51.164;13.572;2022-11-13T04:30:40;101307.57;;;5.22;83.54
60611;BME280;46439;51.164;13.572;2022-11-13T04:33:08;101309.13;;;5.25;83.53
60611;BME280;46439;51.164;13.572;2022-11-13T04:35:37;101315.23;;;5.29;83.75
60611;BME280;46439;51.164;13.572;2022-11-13T04:38:06;101319.64;;;5.32;83.67
60611;BME280;46439;51.164;13.572;2022-11-13T04:40:34;101319.16;;;5.32;83.69
60611;BME280;46439;51.164;13.572;2022-11-13T04:43:03;101317.19;;;5.34;83.83
60611;BME280;46439;51.164;13.572;2022-11-13T04:45:31;101315.36;;;5.37;83.91
60611;BME280;46439;51.164;13.572;2022-11-13T04:48:00;101316.58;;;5.40;83.68
60611;BME280;46439;51.164;13.572;2022-11-13T04:50:29;101315.54;;;5.42;83.87
60611;BME280;46439;51.164;13.572;2022-11-13T04:52:57;101311.23;;;5.40;83.86
60611;BME280;46439;51.164;13.572;2022-11-13T04:55:25;101309.23;;;5.38;83.73
60611;BME280;46439;51.164;13.572;2022-11-13T04:57:54;101309.21;;;5.33;83.69
60611;BME280;46439;51.164;13.572;2022-11-13T05:00:23;101305.45;;;5.29;83.46
60611;BME280;46439;51.164;13.572;2022-11-13T05:02:52;101304.23;;;5.26;83.33
60611;BME280;46439;51.164;13.572;2022-11-13T05:05:20;101301.41;;;5.26;83.60
60611;BME280;46439;51.164;13.572;2022-11-13T05:07:49;101299.86;;;5.25;83.57
60611;BME280;46439;51.164;13.572;2022-11-13T05:10:17;101299.73;;;5.24;83.42
60611;BME280;46439;51.164;13.572;2022-11-13T05:12:46;101302.80;;;5.29;83.56
60611;BME280;46439;51.164;13.572;2022-11-13T05:15:14;101300.19;;;5.32;83.67
60611;BME280;46439;51.164;13.572;2022-11-13T05:17:43;101298.30;;;5.32;83.74
60611;BME280;46439;51.164;13.572;2022-11-13T05:20:12;101292.08;;;5.19;83.42
60611;BME280;46439;51.164;13.572;2022-11-13T05:22:41;101290.22;;;5.07;83.10
60611;BME280;46439;51.164;13.572;2022-11-13T05:25:09;101286.50;;;5.02;83.06
60611;BME280;46439;51.164;13.572;2022-11-13T05:27:38;101284.17;;;4.97;82.92
60611;BME280;46439;51.164;13.572;2022-11-13T05:30:09;101284.99;;;4.93;82.83
60611;BME280;46439;51.164;13.572;2022-11-13T05:32:37;101283.90;;;4.86;82.43
60611;BME280;46439;51.164;13.572;2022-11-13T05:35:07;101278.81;;;4.82;82.73
60611;BME280;46439;51.164;13.572;2022-11-13T05:37:35;101278.56;;;4.86;82.72
60611;BME280;46439;51.164;13.572;2022-11-13T05:40:05;101278.95;;;4.90;83.02
60611;BME280;46439;51.164;13.572;2022-11-13T05:42:34;101277.09;;;4.94;83.24
60611;BME280;46439;51.164;13.572;2022-11-13T05:45:03;101279.58;;;4.94;83.15
60611;BME280;46439;51.164;13.572;2022-11-13T05:47:32;101281.15;;;4.84;83.04
60611;BME280;46439;51.164;13.572;2022-11-13T05:50:01;101276.86;;;4.77;82.98
60611;BME280;46439;51.164;13.572;2022-11-13T05:52:29;101278.41;;;4.72;82.50
60611;BME280;46439;51.164;13.572;2022-11-13T05:54:58;101278.33;;;4.64;82.52
60611;BME280;46439;51.164;13.572;2022-11-13T05:57:26;101268.10;;;4.59;82.51
60611;BME280;46439;51.164;13.572;2022-11-13T05:59:55;101271.13;;;4.55;82.57
60611;BME280;46439;51.164;13.572;2022-11-13T06:02:23;101272.41;;;4.51;82.39
60611;BME280;46439;51.164;13.572;2022-11-13T06:04:55;101278.07;;;4.47;82.21
60611;BME280;46439;51.164;13.572;2022-11-13T06:07:26;101276.14;;;4.38;82.16
60611;BME280;46439;51.164;13.572;2022-11-13T06:09:55;101275.50;;;4.32;82.15
60611;BME280;46439;51.164;13.572;2022-11-13T06:12:23;101274.80;;;4.32;82.02
60611;BME280;46439;51.164;13.572;2022-11-13T06:14:52;101276.43;;;4.34;82.23
60611;BME280;46439;51.164;13.572;2022-11-13T06:17:20;101279.98;;;4.29;82.45
60611;BME280;46439;51.164;13.572;2022-11-13T06:19:49;101278.16;;;4.22;82.03
60611;BME280;46439;51.164;13.572;2022-11-13T06:22:24;101284.31;;;4.21;82.28
60611;BME280;46439;51.164;13.572;2022-11-13T06:24:54;101277.54;;;4.18;82.38
60611;BME280;46439;51.164;13.572;2022-11-13T06:27:23;101278.20;;;4.19;82.21
60611;BME280;46439;51.164;13.572;2022-11-13T06:29:51;101274.95;;;4.20;82.47
60611;BME280;46439;51.164;13.572;2022-11-13T06:32:20;101274.23;;;4.22;82.68
60611;BME280;46439;51.164;13.572;2022-11-13T06:34:49;101275.14;;;4.24;82.76
60611;BME280;46439;51.164;13.572;2022-11-13T06:37:17;101269.51;;;4.23;82.57
60611;BME280;46439;51.164;13.572;2022-11-13T06:39:46;101268.14;;;4.23;82.58
60611;BME280;46439;51.164;13.572;2022-11-13T06:42:14;101273.73;;;4.22;82.42
60611;BME280;46439;51.164;13.572;2022-11-13T06:44:43;101272.26;;;4.22;82.40
60611;BME280;46439;51.164;13.572;2022-11-13T06:47:11;101272.56;;;4.28;82.55
60611;BME280;46439;51.164;13.572;2022-11-13T06:49:40;101274.86;;;4.34;82.44
60611;BME280;46439;51.164;13.572;2022-11-13T06:52:08;101270.96;;;4.38;82.68
60611;BME280;46439;51.164;13.572;2022-11-13T06:54:37;101271.54;;;4.43;82.78
60611;BME280;46439;51.164;13.572;2022-11-13T06:57:05;101276.05;;;4.50;82.94
60611;BME280;46439;51.164;13.572;2022-11-13T06:59:34;101278.25;;;4.52;82.96
60611;BME280;46439;51.164;13.572;2022-11-13T07:02:02;101273.69;;;4.54;82.91
60611;BME280;46439;51.164;13.572;2022-11-13T07:04:31;101270.00;;;4.52;82.83
60611;BME280;46439;51.164;13.572;2022-11-13T07:07:00;101268.78;;;4.50;83.01
60611;BME280;46439;51.164;13.572;2022-11-13T07:09:28;101266.39;;;4.48;82.65
60611;BME280;46439;51.164;13.572;2022-11-13T07:11:57;101270.08;;;4.52;82.66
60611;BME280;46439;51.164;13.572;2022-11-13T07:14:25;101274.80;;;4.50;82.70
60611;BME280;46439;51.164;13.572;2022-11-13T07:16:54;101281.36;;;4.46;82.51
60611;BME280;46439;51.164;13.572;2022-11-13T07:19:22;101276.59;;;4.42;82.29
60611;BME280;46439;51.164;13.572;2022-11-13T07:21:51;101273.13;;;4.41;82.31
60611;BME280;46439;51.164;13.572;2022-11-13T07:24:19;101269.71;;;4.39;82.32
60611;BME280;46439;51.164;13.572;2022-11-13T07:26:48;101270.32;;;4.40;82.28
60611;BME280;46439;51.164;13.572;2022-11-13T07:29:16;101270.15;;;4.42;82.49
60611;BME280;46439;51.164;13.572;2022-11-13T07:31:45;101267.72;;;4.42;82.08
60611;BME280;46439;51.164;13.572;2022-11-13T07:34:13;101268.30;;;4.46;82.58
60611;BME280;46439;51.164;13.572;2022-11-13T07:36:42;101269.08;;;4.51;82.44
60611;BME280;46439;51.164;13.572;2022-11-13T07:39:10;101272.52;;;4.45;82.39
60611;BME280;46439;51.164;13.572;2022-11-13T07:41:39;101263.96;;;4.37;82.24
60611;BME280;46439;51.164;13.572;2022-11-13T07:44:08;101265.00;;;4.35;82.08
60611;BME280;46439;51.164;13.572;2022-11-13T07:46:36;101268.50;;;4.31;82.16
60611;BME280;46439;51.164;13.572;2022-11-13T07:49:05;101260.21;;;4.29;82.10
60611;BME280;46439;51.164;13.572;2022-11-13T07:51:33;101257.23;;;4.31;82.13
60611;BME280;46439;51.164;13.572;2022-11-13T07:54:02;101260.05;;;4.39;82.24
60611;BME280;46439;51.164;13.572;2022-11-13T07:56:31;101259.05;;;4.43;82.56
60611;BME280;46439;51.164;13.572;2022-11-13T07:58:59;101256.86;;;4.41;82.35
60611;BME280;46439;51.164;13.572;2022-11-13T08:01:28;101253.24;;;4.40;82.58
60611;BME280;46439;51.164;13.572;2022-11-13T08:03:57;101253.92;;;4.40;82.48
60611;BME280;46439;51.164;13.572;2022-11-13T08:06:25;101249.05;;;4.47;82.48
60611;BME280;46439;51.164;13.572;2022-11-13T08:08:55;101249.52;;;4.47;82.57
60611;BME280;46439;51.164;13.572;2022-11-13T08:11:23;101248.55;;;4.51;82.62
60611;BME280;46439;51.164;13.572;2022-11-13T08:13:52;101248.04;;;4.56;82.56
60611;BME280;46439;51.164;13.572;2022-11-13T08:16:21;101251.11;;;4.55;82.58
60611;BME280;46439;51.164;13.572;2022-11-13T08:18:50;101253.16;;;4.54;82.53
60611;BME280;46439;51.164;13.572;2022-11-13T08:21:19;101250.77;;;4.47;82.31
60611;BME280;46439;51.164;13.572;2022-11-13T08:23:48;101249.70;;;4.39;81.88
60611;BME280;46439;51.164;13.572;2022-11-13T08:26:17;101249.85;;;4.37;82.05
60611;BME280;46439;51.164;13.572;2022-11-13T08:28:47;101254.26;;;4.38;82.03
60611;BME280;46439;51.164;13.572;2022-11-13T08:31:16;101245.92;;;4.42;82.11
60611;BME280;46439;51.164;13.572;2022-11-13T08:33:44;101243.91;;;4.43;82.03
60611;BME280;46439;51.164;13.572;2022-11-13T08:36:13;101246.45;;;4.45;82.16
60611;BME280;46439;51.164;13.572;2022-11-13T08:38:41;101247.14;;;4.51;82.36
60611;BME280;46439;51.164;13.572;2022-11-13T08:41:10;101244.61;;;4.59;82.53
60611;BME280;46439;51.164;13.572;2022-11-13T08:43:38;101241.31;;;4.65;82.66
60611;BME280;46439;51.164;13.572;2022-11-13T08:46:07;101242.48;;;4.71;82.83
60611;BME280;46439;51.164;13.572;2022-11-13T08:48:36;101236.29;;;4.76;83.06
60611;BME280;46439;51.164;13.572;2022-11-13T08:51:06;101235.40;;;4.83;82.93
60611;BME280;46439;51.164;13.572;2022-11-13T08:53:34;101236.96;;;4.86;82.95
60611;BME280;46439;51.164;13.572;2022-11-13T08:56:03;101240.41;;;4.88;82.72
60611;BME280;46439;51.164;13.572;2022-11-13T09:01:04;101236.02;;;4.99;82.97
60611;BME280;46439;51.164;13.572;2022-11-13T09:03:33;101236.89;;;5.05;82.89
60611;BME280;46439;51.164;13.572;2022-11-13T09:06:06;101234.50;;;5.08;83.02
60611;BME280;46439;51.164;13.572;2022-11-13T09:08:34;101226.25;;;5.13;83.15
60611;BME280;46439;51.164;13.572;2022-11-13T09:11:06;101224.45;;;5.18;83.12
60611;BME280;46439;51.164;13.572;2022-11-13T09:13:35;101218.39;;;5.26;83.35
60611;BME280;46439;51.164;13.572;2022-11-13T09:16:04;101217.18;;;5.35;83.48
60611;BME280;46439;51.164;13.572;2022-11-13T09:18:33;101215.88;;;5.43;83.40
60611;BME280;46439;51.164;13.572;2022-11-13T09:21:03;101223.38;;;5.52;83.66
60611;BME280;46439;51.164;13.572;2022-11-13T09:23:31;101226.81;;;5.61;83.84
60611;BME280;46439;51.164;13.572;2022-11-13T09:26:02;101229.73;;;5.70;83.96
60611;BME280;46439;51.164;13.572;2022-11-13T09:28:31;101236.35;;;5.74;83.96
60611;BME280;46439;51.164;13.572;2022-11-13T09:31:04;101239.04;;;5.79;83.95
60611;BME280;46439;51.164;13.572;2022-11-13T09:33:33;101238.39;;;5.83;83.95
60611;BME280;46439;51.164;13.572;2022-11-13T09:36:08;101234.66;;;5.88;83.90
60611;BME280;46439;51.164;13.572;2022-11-13T09:38:36;101234.20;;;5.96;83.84
60611;BME280;46439;51.164;13.572;2022-11-13T09:41:09;101225.23;;;6.09;84.15
60611;BME280;46439;51.164;13.572;2022-11-13T09:43:42;101218.89;;;6.19;84.54
60611;BME280;46439;51.164;13.572;2022-11-13T09:46:20;101222.52;;;6.25;84.43
60611;BME280;46439;51.164;13.572;2022-11-13T09:48:54;101220.70;;;6.30;84.43
60611;BME280;46439;51.164;13.572;2022-11-13T09:51:29;101214.52;;;6.33;84.35
60611;BME280;46439;51.164;13.572;2022-11-13T09:54:04;101211.45;;;6.36;84.41
60611;BME280;46439;51.164;13.572;2022-11-13T09:56:34;101214.74;;;6.42;84.46
60611;BME280;46439;51.164;13.572;2022-11-13T09:59:14;101216.60;;;6.46;84.50
60611;BME280;46439;51.164;13.572;2022-11-13T10:01:58;101211.55;;;6.51;84.48
60611;BME280;46439;51.164;13.572;2022-11-13T10:04:44;101212.31;;;6.57;84.43
60611;BME280;46439;51.164;13.572;2022-11-13T10:07:27;101204.65;;;6.66;84.70
60611;BME280;46439;51.164;13.572;2022-11-13T10:10:09;101203.11;;;6.74;84.71
60611;BME280;46439;51.164;13.572;2022-11-13T10:12:45;101198.63;;;6.79;84.74
60611;BME280;46439;51.164;13.572;2022-11-13T10:15:14;101186.53;;;6.82;84.84
60611;BME280;46439;51.164;13.572;2022-11-13T10:17:47;101182.10;;;6.88;84.72
60611;BME280;46439;51.164;13.572;2022-11-13T10:20:22;101180.32;;;6.95;84.97
60611;BME280;46439;51.164;13.572;2022-11-13T10:22:52;101186.16;;;7.02;85.02
60611;BME280;46439;51.164;13.572;2022-11-13T10:25:24;101184.84;;;7.12;85.09
60611;BME280;46439;51.164;13.572;2022-11-13T10:27:57;101179.68;;;7.20;85.25
60611;BME280;46439;51.164;13.572;2022-11-13T10:30:26;101178.11;;;7.26;85.22
60611;BME280;46439;51.164;13.572;2022-11-13T10:33:00;101176.20;;;7.32;85.19
60611;BME280;46439;51.164;13.572;2022-11-13T10:35:45;101174.86;;;7.37;85.15
60611;BME280;46439;51.164;13.572;2022-11-13T10:41:12;101173.48;;;7.52;85.30
60611;BME280;46439;51.164;13.572;2022-11-13T10:43:55;101168.91;;;7.61;85.25
60611;BME280;46439;51.164;13.572;2022-11-13T10:46:25;101166.86;;;7.71;85.51
60611;BME280;46439;51.164;13.572;2022-11-13T10:48:57;101156.57;;;7.80;85.53
60611;BME280;46439;51.164;13.572;2022-11-13T10:51:27;101154.67;;;7.90;85.61
60611;BME280;46439;51.164;13.572;2022-11-13T10:53:57;101152.62;;;7.97;85.71
60611;BME280;46439;51.164;13.572;2022-11-13T10:56:28;101147.56;;;8.02;85.50
60611;BME280;46439;51.164;13.572;2022-11-13T10:59:03;101146.49;;;8.10;85.63
60611;BME280;46439;51.164;13.572;2022-11-13T11:01:35;101145.10;;;8.19;85.83
60611;BME280;46439;51.164;13.572;2022-11-13T11:04:06;101140.13;;;8.31;85.98
60611;BME280;46439;51.164;13.572;2022-11-13T11:06:39;101135.29;;;8.42;86.02
60611;BME280;46439;51.164;13.572;2022-11-13T11:09:18;101124.51;;;8.51;85.98
60611;BME280;46439;51.164;13.572;2022-11-13T11:11:58;101118.90;;;8.59;86.26
60611;BME280;46439;51.164;13.572;2022-11-13T11:14:57;101116.80;;;8.69;86.09
60611;BME280;46439;51.164;13.572;2022-11-13T11:17:31;101109.84;;;8.76;86.16
60611;BME280;46439;51.164;13.572;2022-11-13T11:20:04;101107.14;;;8.84;86.29
60611;BME280;46439;51.164;13.572;2022-11-13T11:22:37;101104.71;;;8.93;86.29
60611;BME280;46439;51.164;13.572;2022-11-13T11:25:08;101100.34;;;9.04;86.43
60611;BME280;46439;51.164;13.572;2022-11-13T11:27:42;101093.52;;;9.13;86.57
60611;BME280;46439;51.164;13.572;2022-11-13T11:30:19;101089.36;;;9.21;86.70
60611;BME280;46439;51.164;13.572;2022-11-13T11:32:54;101085.30;;;9.30;86.50
60611;BME280;46439;51.164;13.572;2022-11-13T11:35:25;101077.60;;;9.40;86.81
60611;BME280;46439;51.164;13.572;2022-11-13T11:37:58;101071.73;;;9.49;86.81
60611;BME280;46439;51.164;13.572;2022-11-13T11:40:32;101069.46;;;9.57;86.93
60611;BME280;46439;51.164;13.572;2022-11-13T11:43:11;101070.95;;;9.67;87.04
60611;BME280;46439;51.164;13.572;2022-11-13T11:45:45;101067.16;;;9.74;87.23
60611;BME280;46439;51.164;13.572;2022-11-13T11:48:16;101064.41;;;9.82;87.17
60611;BME280;46439;51.164;13.572;2022-11-13T11:50:49;101058.13;;;9.92;87.02
60611;BME280;46439;51.164;13.572;2022-11-13T11:53:32;101057.48;;;9.98;87.05
60611;BME280;46439;51.164;13.572;2022-11-13T11:56:15;101055.88;;;10.06;87.19
60611;BME280;46439;51.164;13.572;2022-11-13T12:01:38;101051.06;;;10.24;87.31
60611;BME280;46439;51.164;13.572;2022-11-13T12:04:16;101045.64;;;10.32;87.46
60611;BME280;46439;51.164;13.572;2022-11-13T12:06:59;101047.25;;;10.40;87.30
60611;BME280;46439;51.164;13.572;2022-11-13T12:09:37;101047.02;;;10.47;87.46
60611;BME280;46439;51.164;13.572;2022-11-13T12:12:12;101043.90;;;10.53;87.37
60611;BME280;46439;51.164;13.572;2022-11-13T12:14:57;101036.84;;;10.57;87.49
60611;BME280;46439;51.164;13.572;2022-11-13T12:17:42;101037.99;;;10.58;87.31
60611;BME280;46439;51.164;13.572;2022-11-13T12:20:22;101036.24;;;10.58;87.10
60611;BME280;46439;51.164;13.572;2022-11-13T12:22:58;101033.14;;;10.58;86.99
60611;BME280;46439;51.164;13.572;2022-11-13T12:25:34;101027.42;;;10.60;87.22
60611;BME280;46439;51.164;13.572;2022-11-13T12:28:13;101021.89;;;10.63;87.09
60611;BME280;46439;51.164;13.572;2022-11-13T12:30:49;101019.91;;;10.65;87.18
60611;BME280;46439;51.164;13.572;2022-11-13T12:33:27;101019.38;;;10.67;87.04
60611;BME280;46439;51.164;13.572;2022-11-13T12:35:58;101021.16;;;10.71;87.12
60611;BME280;46439;51.164;13.572;2022-11-13T12:38:35;101016.85;;;10.75;86.97
60611;BME280;46439;51.164;13.572;2022-11-13T12:41:12;101017.23;;;10.77;87.01
60611;BME280;46439;51.164;13.572;2022-11-13T12:43:52;101016.73;;;10.77;86.92
60611;BME280;46439;51.164;13.572;2022-11-13T12:46:34;101011.91;;;10.71;86.80
60611;BME280;46439;51.164;13.572;2022-11-13T12:49:13;101011.17;;;10.66;86.48
60611;BME280;46439;51.164;13.572;2022-11-13T12:51:51;101008.33;;;10.64;86.41
60611;BME280;46439;51.164;13.572;2022-11-13T12:54:30;101004.46;;;10.63;86.43
60611;BME280;46439;51.164;13.572;2022-11-13T12:57:22;101003.19;;;10.63;86.48
60611;BME280;46439;51.164;13.572;2022-11-13T12:59:51;100995.20;;;10.65;86.33
60611;BME280;46439;51.164;13.572;2022-11-13T13:02:49;100992.88;;;10.65;86.67
60611;BME280;46439;51.164;13.572;2022-11-13T13:05:37;100989.41;;;10.64;86.32
60611;BME280;46439;51.164;13.572;2022-11-13T13:08:27;100985.52;;;10.63;86.42
60611;BME280;46439;51.164;13.572;2022-11-13T13:11:08;100988.52;;;10.62;86.49
60611;BME280;46439;51.164;13.572;2022-11-13T13:13:46;100986.60;;;10.58;86.20
60611;BME280;46439;51.164;13.572;2022-11-13T13:16:23;100983.98;;;10.55;86.04